Apollon Hellas — SWFP — position and weather

sailwx.info

Track history (hours):
 
Tides and Currents Weather Stations Pressure Air Temp Water Temp Dewpoint Dewpoint Depression Visibility Wind Speed Wind Dir Waves Ship Positions

Apollon Hellas

Last reported at 2018-Jun-19 18:12 UTC. Time now 2018-Jun-19 20:20 UTC.
Position N 37°57' E 023°38'.

Length 92 m; draft 4 m.

Type: Ship. MMSI: 237002600.

Date/timePositionNaut miles runAvg speedWind from/ knotsBaromVisibWave heightAir tempDewpointWater temp
2018-Jun-19 18:12N 37°57' E 023°38'1 3.4
2018-Jun-19 18:00N 37°56' E 023°38'714.2
2018-Jun-19 17:30N 37°51' E 023°32'714.7
2018-Jun-19 17:01N 37°46' E 023°25'1 2.1
2018-Jun-19 16:30N 37°45' E 023°25'714.2
2018-Jun-19 16:00N 37°50' E 023°31'715.0
2018-Jun-19 15:30N 37°56' E 023°37'1 2.9
2018-Jun-19 15:00N 37°57' E 023°38'0 0.0
2018-Jun-19 14:30N 37°57' E 023°39'0 0.0
2018-Jun-19 14:00N 37°57' E 023°39'0 0.0
2018-Jun-19 13:30N 37°57' E 023°39'5 9.3
2018-Jun-19 13:00N 37°53' E 023°34'714.3
2018-Jun-19 12:31N 37°48' E 023°28'4 8.0
2018-Jun-19 12:00N 37°45' E 023°25'510.0
2018-Jun-19 11:31N 37°40' E 023°25'710.0
2018-Jun-19 10:49N 37°33' E 023°25'310.4
2018-Jun-19 10:30N 37°30' E 023°27'2 4.7
2018-Jun-19 10:00N 37°32' E 023°25'5 8.9
2018-Jun-19 09:26N 37°37' E 023°25'715.1
2018-Jun-19 09:00N 37°44' E 023°25'3 6.4
2018-Jun-19 08:30N 37°47' E 023°26'714.9
2018-Jun-19 08:00N 37°52' E 023°33'612.9
2018-Jun-19 07:30N 37°57' E 023°38'0 0.1
2018-Jun-19 07:01N 37°57' E 023°38'0 0.0
2018-Jun-19 06:30N 37°57' E 023°38'0 0.0
2018-Jun-18 18:10N 37°57' E 023°38'0 1.3
2018-Jun-18 18:00N 37°57' E 023°38'714.0
2018-Jun-18 17:30N 37°51' E 023°32'714.9
2018-Jun-18 17:01N 37°46' E 023°25'1 2.9
2018-Jun-18 16:30N 37°45' E 023°25'713.8
2018-Jun-18 16:00N 37°50' E 023°31'714.8
2018-Jun-18 15:30N 37°56' E 023°37'2 3.4
2018-Jun-18 15:00N 37°57' E 023°38'0 0.0
2018-Jun-18 14:31N 37°57' E 023°38'0 0.0
2018-Jun-18 14:01N 37°57' E 023°38'0 0.0
2018-Jun-18 13:30N 37°57' E 023°38'0 0.0
2018-Jun-18 13:01N 37°57' E 023°38'0 0.0
2018-Jun-18 12:30N 37°57' E 023°38'0 0.0
2018-Jun-18 12:00N 37°57' E 023°38'3 7.0
2018-Jun-18 11:31N 37°54' E 023°35'714.5
2018-Jun-18 11:01N 37°49' E 023°29'510.1
2018-Jun-18 10:30N 37°45' E 023°25'0 0.0
2018-Jun-18 10:00N 37°45' E 023°25'510.1
2018-Jun-18 09:30N 37°49' E 023°29'714.9
2018-Jun-18 09:00N 37°54' E 023°35'3 6.6
2018-Jun-18 08:30N 37°57' E 023°38'0 0.0
2018-Jun-18 08:00N 37°57' E 023°38'0 0.0
2018-Jun-18 07:30N 37°57' E 023°38'0 0.0
2018-Jun-17 20:14N 37°57' E 023°38'1 4.6
2018-Jun-17 20:01N 37°56' E 023°37'714.8
2018-Jun-17 19:31N 37°50' E 023°32'714.5
2018-Jun-17 19:00N 37°45' E 023°25'1 1.8
2018-Jun-17 18:30N 37°45' E 023°25'2 3.1
2018-Jun-17 18:00N 37°46' E 023°25'815.1
2018-Jun-17 17:30N 37°51' E 023°32'714.2
2018-Jun-17 17:00N 37°57' E 023°38'0 1.0
2018-Jun-17 16:31N 37°56' E 023°38'612.6
2018-Jun-17 16:00N 37°52' E 023°33'714.5
2018-Jun-17 15:30N 37°47' E 023°26'2 4.0
2018-Jun-17 15:00N 37°45' E 023°25'3 6.4
2018-Jun-17 14:30N 37°42' E 023°25'9 8.7
2018-Jun-17 13:29N 37°33' E 023°25'3 2.9
2018-Jun-17 12:26N 37°30' E 023°27'0 0.0
2018-Jun-17 12:00N 37°30' E 023°27'0 0.0
2018-Jun-17 11:28N 37°30' E 023°27'0 0.0
2018-Jun-17 10:28N 37°30' E 023°27'0 0.0
2018-Jun-17 09:56N 37°30' E 023°27'510.9
2018-Jun-17 09:29N 37°34' E 023°24'5 9.8
2018-Jun-17 09:00N 37°39' E 023°25'611.2
2018-Jun-17 08:30N 37°45' E 023°25'3 6.1
2018-Jun-17 08:00N 37°48' E 023°27'714.8
2018-Jun-17 07:30N 37°53' E 023°34'510.8
2018-Jun-17 07:00N 37°57' E 023°38'0 0.0
2018-Jun-17 06:31N 37°57' E 023°38'0 0.0
2018-Jun-17 06:01N 37°57' E 023°38'0 0.0
2018-Jun-16 17:57N 37°57' E 023°38'3 7.5
2018-Jun-16 17:30N 37°54' E 023°35'714.7
2018-Jun-16 17:00N 37°49' E 023°29'510.2
2018-Jun-16 16:30N 37°45' E 023°25'2 3.6
2018-Jun-16 16:00N 37°46' E 023°26'714.7
2018-Jun-16 15:30N 37°51' E 023°33'713.9
2018-Jun-16 15:00N 37°57' E 023°38'0 0.2
2018-Jun-16 14:30N 37°57' E 023°38'0 0.0
2018-Jun-16 14:00N 37°57' E 023°38'0 0.1
2018-Jun-16 13:31N 37°57' E 023°38'713.0
2018-Jun-16 13:01N 37°52' E 023°33'714.9
2018-Jun-16 12:30N 37°47' E 023°26'2 4.0
2018-Jun-16 12:00N 37°45' E 023°25'2 3.6
2018-Jun-16 11:30N 37°46' E 023°26'714.9
2018-Jun-16 11:00N 37°51' E 023°33'713.8
2018-Jun-16 10:30N 37°57' E 023°38'0 0.1
2018-Jun-16 10:01N 37°57' E 023°38'0 0.3
2018-Jun-16 09:31N 37°57' E 023°38'713.5
2018-Jun-16 09:01N 37°52' E 023°33'714.8
2018-Jun-16 08:31N 37°47' E 023°26'2 3.6
2018-Jun-16 08:00N 37°45' E 023°25'510.8
2018-Jun-16 07:30N 37°49' E 023°29'715.0
2018-Jun-16 07:00N 37°55' E 023°36'3 6.0
2018-Jun-16 06:30N 37°57' E 023°39'0 0.0
2018-Jun-16 06:00N 37°57' E 023°39'0 0.0
2018-Jun-16 05:30N 37°57' E 023°39'0 0.0
2018-Jun-15 18:56N 37°57' E 023°39'4 8.5
2018-Jun-15 18:31N 37°54' E 023°36'714.7
2018-Jun-15 18:00N 37°49' E 023°29'5 9.7
2018-Jun-15 17:30N 37°45' E 023°25'2 4.8
2018-Jun-15 17:00N 37°47' E 023°26'714.0
2018-Jun-15 16:30N 37°51' E 023°33'713.4
2018-Jun-15 16:00N 37°57' E 023°38'0 0.1
2018-Jun-15 15:30N 37°57' E 023°38'0 0.0
2018-Jun-15 15:00N 37°57' E 023°38'0 0.0
2018-Jun-15 14:30N 37°57' E 023°38'0 0.0
2018-Jun-15 14:00N 37°57' E 023°38'0 0.0
2018-Jun-15 13:30N 37°57' E 023°38'0 0.0
2018-Jun-15 13:00N 37°57' E 023°38'0 0.0
2018-Jun-15 12:30N 37°57' E 023°38'0 0.0
2018-Jun-15 12:00N 37°57' E 023°38'0 0.0
2018-Jun-15 11:30N 37°57' E 023°38'0 0.0
2018-Jun-15 11:00N 37°57' E 023°38'0 0.0
2018-Jun-15 10:30N 37°57' E 023°38'0 0.0
2018-Jun-15 10:00N 37°57' E 023°38'0 0.0
2018-Jun-15 09:30N 37°57' E 023°38'0 0.0
2018-Jun-15 09:00N 37°57' E 023°38'0 0.0
2018-Jun-15 08:30N 37°57' E 023°38'0 0.0
2018-Jun-15 07:59N 37°57' E 023°38'2 3.6
2018-Jun-15 07:30N 37°56' E 023°37'714.8
2018-Jun-15 07:00N 37°50' E 023°31'713.9
2018-Jun-15 06:30N 37°45' E 023°25'0 0.6
2018-Jun-15 06:00N 37°45' E 023°25'612.3
2018-Jun-15 05:30N 37°50' E 023°30'714.8
2018-Jun-15 05:00N 37°55' E 023°36'2 4.7
2018-Jun-15 04:30N 37°57' E 023°38'0 0.0
2018-Jun-15 04:00N 37°57' E 023°38'0 0.0
2018-Jun-14 14:54N 37°57' E 023°38'3 7.9
2018-Jun-14 14:30N 37°55' E 023°36'714.9
2018-Jun-14 14:00N 37°49' E 023°29'510.6
2018-Jun-14 13:30N 37°45' E 023°25'0 0.0
2018-Jun-14 13:00N 37°45' E 023°25'0 0.0
2018-Jun-14 12:30N 37°45' E 023°25'3 5.5
2018-Jun-14 12:00N 37°47' E 023°27'714.8
2018-Jun-14 11:30N 37°52' E 023°34'611.5
2018-Jun-14 11:00N 37°57' E 023°38'0 0.0
2018-Jun-14 10:30N 37°57' E 023°38'0 0.0
2018-Jun-14 10:00N 37°57' E 023°38'0 0.0
2018-Jun-14 09:30N 37°57' E 023°38'1 0.0
2018-Jun-13 17:53N 37°56' E 023°38'514.2
2018-Jun-13 17:31N 37°53' E 023°33'815.0
2018-Jun-13 17:01N 37°47' E 023°27'3 5.5
2018-Jun-13 16:30N 37°45' E 023°25'613.2
2018-Jun-13 16:00N 37°50' E 023°30'714.5
2018-Jun-13 15:30N 37°55' E 023°36'2 2.8
2018-Jun-13 14:41N 37°57' E 023°38'0 0.0
2018-Jun-13 14:30N 37°57' E 023°38'0 0.0
2018-Jun-13 14:00N 37°57' E 023°38'0 0.0
2018-Jun-13 13:30N 37°57' E 023°38'3 6.0
2018-Jun-13 13:01N 37°55' E 023°36'815.0
2018-Jun-13 12:31N 37°49' E 023°30'510.7
2018-Jun-13 12:00N 37°45' E 023°25'4 7.2
2018-Jun-13 11:30N 37°41' E 023°25'612.7
2018-Jun-13 11:00N 37°35' E 023°24'5 9.4
2018-Jun-13 10:26N 37°30' E 023°27'3 7.1
2018-Jun-13 10:00N 37°33' E 023°25'510.5
2018-Jun-13 09:31N 37°38' E 023°25'713.4
2018-Jun-13 09:00N 37°45' E 023°25'4 7.3
2018-Jun-13 08:30N 37°48' E 023°28'714.6
2018-Jun-13 08:00N 37°53' E 023°34'510.0
2018-Jun-13 07:30N 37°57' E 023°38'0 0.0
2018-Jun-13 07:00N 37°57' E 023°38'0 0.0
2018-Jun-13 06:31N 37°57' E 023°38'0 0.0
2018-Jun-13 06:00N 37°57' E 023°38'0 0.0
2018-Jun-12 14:52N 37°57' E 023°38'3 8.5
2018-Jun-12 14:30N 37°55' E 023°36'815.2
2018-Jun-12 14:00N 37°49' E 023°29'510.5
2018-Jun-12 13:30N 37°45' E 023°25'0 0.0
2018-Jun-12 13:00N 37°45' E 023°25'0 0.0
2018-Jun-12 12:31N 37°45' E 023°25'2 4.0
2018-Jun-12 12:01N 37°47' E 023°26'714.5
2018-Jun-12 11:31N 37°52' E 023°33'713.6
2018-Jun-12 11:00N 37°57' E 023°38'0 0.0
2018-Jun-12 10:28N 37°57' E 023°38'0 0.0
2018-Jun-12 10:00N 37°57' E 023°38'0 0.0
2018-Jun-12 09:30N 37°57' E 023°38'0 0.0
2018-Jun-12 09:00N 37°57' E 023°38'0 0.0
2018-Jun-12 08:31N 37°57' E 023°38'0 0.0
2018-Jun-11 18:12N 37°57' E 023°38'0 1.1
2018-Jun-11 18:00N 37°57' E 023°38'713.9
2018-Jun-11 17:30N 37°51' E 023°33'714.7
2018-Jun-11 17:00N 37°46' E 023°26'2 3.2
2018-Jun-11 16:30N 37°45' E 023°25'714.3
2018-Jun-11 16:01N 37°50' E 023°31'815.0
2018-Jun-11 15:30N 37°56' E 023°37'1 2.5
2018-Jun-11 14:58N 37°57' E 023°38'0 0.0
2018-Jun-11 14:30N 37°57' E 023°38'0 0.0
2018-Jun-11 14:00N 37°57' E 023°38'0 0.0
2018-Jun-11 13:30N 37°57' E 023°38'3 6.5
2018-Jun-11 13:01N 37°55' E 023°35'714.6
2018-Jun-11 12:30N 37°49' E 023°30'510.6
2018-Jun-11 12:00N 37°45' E 023°25'4 8.3
2018-Jun-11 11:30N 37°41' E 023°25'810.3
2018-Jun-11 10:46N 37°33' E 023°25'310.9
2018-Jun-11 10:28N 37°30' E 023°27'2 4.0
2018-Jun-11 10:00N 37°31' E 023°25'6 9.3
2018-Jun-11 09:24N 37°37' E 023°25'615.2
2018-Jun-11 09:00N 37°43' E 023°25'4 8.3
2018-Jun-11 08:30N 37°47' E 023°26'714.8
2018-Jun-11 08:01N 37°52' E 023°33'713.2
2018-Jun-11 07:31N 37°57' E 023°38'0 0.0
2018-Jun-11 07:01N 37°57' E 023°38'0 0.0
2018-Jun-11 06:31N 37°57' E 023°38'0 0.0
2018-Jun-10 19:18N 37°57' E 023°38'1 4.7
2018-Jun-10 19:00N 37°56' E 023°37'715.0
2018-Jun-10 18:30N 37°50' E 023°31'714.1
2018-Jun-10 18:00N 37°45' E 023°25'1 1.2
2018-Jun-10 17:30N 37°45' E 023°25'0 0.8
2018-Jun-10 17:00N 37°45' E 023°25'713.7
2018-Jun-10 16:30N 37°50' E 023°31'714.7
2018-Jun-10 16:00N 37°56' E 023°37'2 3.8
2018-Jun-10 15:30N 37°57' E 023°38'510.3
2018-Jun-10 15:00N 37°53' E 023°34'715.0
2018-Jun-10 14:30N 37°48' E 023°27'3 3.2
2018-Jun-10 13:30N 37°45' E 023°25'0 0.0
2018-Jun-10 13:00N 37°45' E 023°25'0 0.0
2018-Jun-10 12:30N 37°45' E 023°25'3 5.4
2018-Jun-10 12:00N 37°47' E 023°27'714.6
2018-Jun-10 11:30N 37°52' E 023°33'612.0
2018-Jun-10 11:00N 37°57' E 023°38'0 0.0
2018-Jun-10 10:30N 37°57' E 023°38'0 0.0
2018-Jun-10 10:01N 37°57' E 023°38'0 0.0
2018-Jun-10 09:30N 37°57' E 023°38'510.4
2018-Jun-10 09:00N 37°53' E 023°34'815.0
2018-Jun-10 08:30N 37°48' E 023°27'3 6.3
2018-Jun-10 08:00N 37°45' E 023°25'3 6.4
2018-Jun-10 07:30N 37°48' E 023°27'714.7
2018-Jun-10 07:00N 37°52' E 023°34'511.0
2018-Jun-10 06:30N 37°57' E 023°38'0 0.0
2018-Jun-10 06:00N 37°57' E 023°38'0 0.0
2018-Jun-10 05:30N 37°57' E 023°38'0 0.0
2018-Jun-09 18:23N 37°57' E 023°38'  
Track history (hours):
 
Tides and Currents Weather Stations Pressure Air Temp Water Temp Dewpoint Dewpoint Depression Visibility Wind Speed Wind Dir Waves Ship Positions

Apollon Hellas

Last reported at 2018-Jun-19 18:12 UTC. Time now 2018-Jun-19 20:20 UTC.
Position N 37°57' E 023°38'.

Length 92 m; draft 4 m.

Type: Ship. MMSI: 237002600.

Date/timePositionNaut miles runAvg speedWind from/ knotsBaromVisibWave heightAir tempDewpointWater temp
2018-Jun-19 18:12N 37°57' E 023°38'1 3.4
2018-Jun-19 18:00N 37°56' E 023°38'714.2
2018-Jun-19 17:30N 37°51' E 023°32'714.7
2018-Jun-19 17:01N 37°46' E 023°25'1 2.1
2018-Jun-19 16:30N 37°45' E 023°25'714.2
2018-Jun-19 16:00N 37°50' E 023°31'715.0
2018-Jun-19 15:30N 37°56' E 023°37'1 2.9
2018-Jun-19 15:00N 37°57' E 023°38'0 0.0
2018-Jun-19 14:30N 37°57' E 023°39'0 0.0
2018-Jun-19 14:00N 37°57' E 023°39'0 0.0
2018-Jun-19 13:30N 37°57' E 023°39'5 9.3
2018-Jun-19 13:00N 37°53' E 023°34'714.3
2018-Jun-19 12:31N 37°48' E 023°28'4 8.0
2018-Jun-19 12:00N 37°45' E 023°25'510.0
2018-Jun-19 11:31N 37°40' E 023°25'710.0
2018-Jun-19 10:49N 37°33' E 023°25'310.4
2018-Jun-19 10:30N 37°30' E 023°27'2 4.7
2018-Jun-19 10:00N 37°32' E 023°25'5 8.9
2018-Jun-19 09:26N 37°37' E 023°25'715.1
2018-Jun-19 09:00N 37°44' E 023°25'3 6.4
2018-Jun-19 08:30N 37°47' E 023°26'714.9
2018-Jun-19 08:00N 37°52' E 023°33'612.9
2018-Jun-19 07:30N 37°57' E 023°38'0 0.1
2018-Jun-19 07:01N 37°57' E 023°38'0 0.0
2018-Jun-19 06:30N 37°57' E 023°38'0 0.0
2018-Jun-18 18:10N 37°57' E 023°38'0 1.3
2018-Jun-18 18:00N 37°57' E 023°38'714.0
2018-Jun-18 17:30N 37°51' E 023°32'714.9
2018-Jun-18 17:01N 37°46' E 023°25'1 2.9
2018-Jun-18 16:30N 37°45' E 023°25'713.8
2018-Jun-18 16:00N 37°50' E 023°31'714.8
2018-Jun-18 15:30N 37°56' E 023°37'2 3.4
2018-Jun-18 15:00N 37°57' E 023°38'0 0.0
2018-Jun-18 14:31N 37°57' E 023°38'0 0.0
2018-Jun-18 14:01N 37°57' E 023°38'0 0.0
2018-Jun-18 13:30N 37°57' E 023°38'0 0.0
2018-Jun-18 13:01N 37°57' E 023°38'0 0.0
2018-Jun-18 12:30N 37°57' E 023°38'0 0.0
2018-Jun-18 12:00N 37°57' E 023°38'3 7.0
2018-Jun-18 11:31N 37°54' E 023°35'714.5
2018-Jun-18 11:01N 37°49' E 023°29'510.1
2018-Jun-18 10:30N 37°45' E 023°25'0 0.0
2018-Jun-18 10:00N 37°45' E 023°25'510.1
2018-Jun-18 09:30N 37°49' E 023°29'714.9
2018-Jun-18 09:00N 37°54' E 023°35'3 6.6
2018-Jun-18 08:30N 37°57' E 023°38'0 0.0
2018-Jun-18 08:00N 37°57' E 023°38'0 0.0
2018-Jun-18 07:30N 37°57' E 023°38'0 0.0
2018-Jun-17 20:14N 37°57' E 023°38'1 4.6
2018-Jun-17 20:01N 37°56' E 023°37'714.8
2018-Jun-17 19:31N 37°50' E 023°32'714.5
2018-Jun-17 19:00N 37°45' E 023°25'1 1.8
2018-Jun-17 18:30N 37°45' E 023°25'2 3.1
2018-Jun-17 18:00N 37°46' E 023°25'815.1
2018-Jun-17 17:30N 37°51' E 023°32'714.2
2018-Jun-17 17:00N 37°57' E 023°38'0 1.0
2018-Jun-17 16:31N 37°56' E 023°38'612.6
2018-Jun-17 16:00N 37°52' E 023°33'714.5
2018-Jun-17 15:30N 37°47' E 023°26'2 4.0
2018-Jun-17 15:00N 37°45' E 023°25'3 6.4
2018-Jun-17 14:30N 37°42' E 023°25'9 8.7
2018-Jun-17 13:29N 37°33' E 023°25'3 2.9
2018-Jun-17 12:26N 37°30' E 023°27'0 0.0
2018-Jun-17 12:00N 37°30' E 023°27'0 0.0
2018-Jun-17 11:28N 37°30' E 023°27'0 0.0
2018-Jun-17 10:28N 37°30' E 023°27'0 0.0
2018-Jun-17 09:56N 37°30' E 023°27'510.9
2018-Jun-17 09:29N 37°34' E 023°24'5 9.8
2018-Jun-17 09:00N 37°39' E 023°25'611.2
2018-Jun-17 08:30N 37°45' E 023°25'3 6.1
2018-Jun-17 08:00N 37°48' E 023°27'714.8
2018-Jun-17 07:30N 37°53' E 023°34'510.8
2018-Jun-17 07:00N 37°57' E 023°38'0 0.0
2018-Jun-17 06:31N 37°57' E 023°38'0 0.0
2018-Jun-17 06:01N 37°57' E 023°38'0 0.0
2018-Jun-16 17:57N 37°57' E 023°38'3 7.5
2018-Jun-16 17:30N 37°54' E 023°35'714.7
2018-Jun-16 17:00N 37°49' E 023°29'510.2
2018-Jun-16 16:30N 37°45' E 023°25'2 3.6
2018-Jun-16 16:00N 37°46' E 023°26'714.7
2018-Jun-16 15:30N 37°51' E 023°33'713.9
2018-Jun-16 15:00N 37°57' E 023°38'0 0.2
2018-Jun-16 14:30N 37°57' E 023°38'0 0.0
2018-Jun-16 14:00N 37°57' E 023°38'0 0.1
2018-Jun-16 13:31N 37°57' E 023°38'713.0
2018-Jun-16 13:01N 37°52' E 023°33'714.9
2018-Jun-16 12:30N 37°47' E 023°26'2 4.0
2018-Jun-16 12:00N 37°45' E 023°25'2 3.6
2018-Jun-16 11:30N 37°46' E 023°26'714.9
2018-Jun-16 11:00N 37°51' E 023°33'713.8
2018-Jun-16 10:30N 37°57' E 023°38'0 0.1
2018-Jun-16 10:01N 37°57' E 023°38'0 0.3
2018-Jun-16 09:31N 37°57' E 023°38'713.5
2018-Jun-16 09:01N 37°52' E 023°33'714.8
2018-Jun-16 08:31N 37°47' E 023°26'2 3.6
2018-Jun-16 08:00N 37°45' E 023°25'510.8
2018-Jun-16 07:30N 37°49' E 023°29'715.0
2018-Jun-16 07:00N 37°55' E 023°36'3 6.0
2018-Jun-16 06:30N 37°57' E 023°39'0 0.0
2018-Jun-16 06:00N 37°57' E 023°39'0 0.0
2018-Jun-16 05:30N 37°57' E 023°39'0 0.0
2018-Jun-15 18:56N 37°57' E 023°39'4 8.5
2018-Jun-15 18:31N 37°54' E 023°36'714.7
2018-Jun-15 18:00N 37°49' E 023°29'5 9.7
2018-Jun-15 17:30N 37°45' E 023°25'2 4.8
2018-Jun-15 17:00N 37°47' E 023°26'714.0
2018-Jun-15 16:30N 37°51' E 023°33'713.4
2018-Jun-15 16:00N 37°57' E 023°38'0 0.1
2018-Jun-15 15:30N 37°57' E 023°38'0 0.0
2018-Jun-15 15:00N 37°57' E 023°38'0 0.0
2018-Jun-15 14:30N 37°57' E 023°38'0 0.0
2018-Jun-15 14:00N 37°57' E 023°38'0 0.0
2018-Jun-15 13:30N 37°57' E 023°38'0 0.0
2018-Jun-15 13:00N 37°57' E 023°38'0 0.0
2018-Jun-15 12:30N 37°57' E 023°38'0 0.0
2018-Jun-15 12:00N 37°57' E 023°38'0 0.0
2018-Jun-15 11:30N 37°57' E 023°38'0 0.0
2018-Jun-15 11:00N 37°57' E 023°38'0 0.0
2018-Jun-15 10:30N 37°57' E 023°38'0 0.0
2018-Jun-15 10:00N 37°57' E 023°38'0 0.0
2018-Jun-15 09:30N 37°57' E 023°38'0 0.0
2018-Jun-15 09:00N 37°57' E 023°38'0 0.0
2018-Jun-15 08:30N 37°57' E 023°38'0 0.0
2018-Jun-15 07:59N 37°57' E 023°38'2 3.6
2018-Jun-15 07:30N 37°56' E 023°37'714.8
2018-Jun-15 07:00N 37°50' E 023°31'713.9
2018-Jun-15 06:30N 37°45' E 023°25'0 0.6
2018-Jun-15 06:00N 37°45' E 023°25'612.3
2018-Jun-15 05:30N 37°50' E 023°30'714.8
2018-Jun-15 05:00N 37°55' E 023°36'2 4.7
2018-Jun-15 04:30N 37°57' E 023°38'0 0.0
2018-Jun-15 04:00N 37°57' E 023°38'0 0.0
2018-Jun-14 14:54N 37°57' E 023°38'3 7.9
2018-Jun-14 14:30N 37°55' E 023°36'714.9
2018-Jun-14 14:00N 37°49' E 023°29'510.6
2018-Jun-14 13:30N 37°45' E 023°25'0 0.0
2018-Jun-14 13:00N 37°45' E 023°25'0 0.0
2018-Jun-14 12:30N 37°45' E 023°25'3 5.5
2018-Jun-14 12:00N 37°47' E 023°27'714.8
2018-Jun-14 11:30N 37°52' E 023°34'611.5
2018-Jun-14 11:00N 37°57' E 023°38'0 0.0
2018-Jun-14 10:30N 37°57' E 023°38'0 0.0
2018-Jun-14 10:00N 37°57' E 023°38'0 0.0
2018-Jun-14 09:30N 37°57' E 023°38'1 0.0
2018-Jun-13 17:53N 37°56' E 023°38'514.2
2018-Jun-13 17:31N 37°53' E 023°33'815.0
2018-Jun-13 17:01N 37°47' E 023°27'3 5.5
2018-Jun-13 16:30N 37°45' E 023°25'613.2
2018-Jun-13 16:00N 37°50' E 023°30'714.5
2018-Jun-13 15:30N 37°55' E 023°36'2 2.8
2018-Jun-13 14:41N 37°57' E 023°38'0 0.0
2018-Jun-13 14:30N 37°57' E 023°38'0 0.0
2018-Jun-13 14:00N 37°57' E 023°38'0 0.0
2018-Jun-13 13:30N 37°57' E 023°38'3 6.0
2018-Jun-13 13:01N 37°55' E 023°36'815.0
2018-Jun-13 12:31N 37°49' E 023°30'510.7
2018-Jun-13 12:00N 37°45' E 023°25'4 7.2
2018-Jun-13 11:30N 37°41' E 023°25'612.7
2018-Jun-13 11:00N 37°35' E 023°24'5 9.4
2018-Jun-13 10:26N 37°30' E 023°27'3 7.1
2018-Jun-13 10:00N 37°33' E 023°25'510.5
2018-Jun-13 09:31N 37°38' E 023°25'713.4
2018-Jun-13 09:00N 37°45' E 023°25'4 7.3
2018-Jun-13 08:30N 37°48' E 023°28'714.6
2018-Jun-13 08:00N 37°53' E 023°34'510.0
2018-Jun-13 07:30N 37°57' E 023°38'0 0.0
2018-Jun-13 07:00N 37°57' E 023°38'0 0.0
2018-Jun-13 06:31N 37°57' E 023°38'0 0.0
2018-Jun-13 06:00N 37°57' E 023°38'0 0.0
2018-Jun-12 14:52N 37°57' E 023°38'3 8.5
2018-Jun-12 14:30N 37°55' E 023°36'815.2
2018-Jun-12 14:00N 37°49' E 023°29'510.5
2018-Jun-12 13:30N 37°45' E 023°25'0 0.0
2018-Jun-12 13:00N 37°45' E 023°25'0 0.0
2018-Jun-12 12:31N 37°45' E 023°25'2 4.0
2018-Jun-12 12:01N 37°47' E 023°26'714.5
2018-Jun-12 11:31N 37°52' E 023°33'713.6
2018-Jun-12 11:00N 37°57' E 023°38'0 0.0
2018-Jun-12 10:28N 37°57' E 023°38'0 0.0
2018-Jun-12 10:00N 37°57' E 023°38'0 0.0
2018-Jun-12 09:30N 37°57' E 023°38'0 0.0
2018-Jun-12 09:00N 37°57' E 023°38'0 0.0
2018-Jun-12 08:31N 37°57' E 023°38'0 0.0
2018-Jun-11 18:12N 37°57' E 023°38'0 1.1
2018-Jun-11 18:00N 37°57' E 023°38'713.9
2018-Jun-11 17:30N 37°51' E 023°33'714.7
2018-Jun-11 17:00N 37°46' E 023°26'2 3.2
2018-Jun-11 16:30N 37°45' E 023°25'714.3
2018-Jun-11 16:01N 37°50' E 023°31'815.0
2018-Jun-11 15:30N 37°56' E 023°37'1 2.5
2018-Jun-11 14:58N 37°57' E 023°38'0 0.0
2018-Jun-11 14:30N 37°57' E 023°38'0 0.0
2018-Jun-11 14:00N 37°57' E 023°38'0 0.0
2018-Jun-11 13:30N 37°57' E 023°38'3 6.5
2018-Jun-11 13:01N 37°55' E 023°35'714.6
2018-Jun-11 12:30N 37°49' E 023°30'510.6
2018-Jun-11 12:00N 37°45' E 023°25'4 8.3
2018-Jun-11 11:30N 37°41' E 023°25'810.3
2018-Jun-11 10:46N 37°33' E 023°25'310.9
2018-Jun-11 10:28N 37°30' E 023°27'2 4.0
2018-Jun-11 10:00N 37°31' E 023°25'6 9.3
2018-Jun-11 09:24N 37°37' E 023°25'615.2
2018-Jun-11 09:00N 37°43' E 023°25'4 8.3
2018-Jun-11 08:30N 37°47' E 023°26'714.8
2018-Jun-11 08:01N 37°52' E 023°33'713.2
2018-Jun-11 07:31N 37°57' E 023°38'0 0.0
2018-Jun-11 07:01N 37°57' E 023°38'0 0.0
2018-Jun-11 06:31N 37°57' E 023°38'0 0.0
2018-Jun-10 19:18N 37°57' E 023°38'1 4.7
2018-Jun-10 19:00N 37°56' E 023°37'715.0
2018-Jun-10 18:30N 37°50' E 023°31'714.1
2018-Jun-10 18:00N 37°45' E 023°25'1 1.2
2018-Jun-10 17:30N 37°45' E 023°25'0 0.8
2018-Jun-10 17:00N 37°45' E 023°25'713.7
2018-Jun-10 16:30N 37°50' E 023°31'714.7
2018-Jun-10 16:00N 37°56' E 023°37'2 3.8
2018-Jun-10 15:30N 37°57' E 023°38'510.3
2018-Jun-10 15:00N 37°53' E 023°34'715.0
2018-Jun-10 14:30N 37°48' E 023°27'3 3.2
2018-Jun-10 13:30N 37°45' E 023°25'0 0.0
2018-Jun-10 13:00N 37°45' E 023°25'0 0.0
2018-Jun-10 12:30N 37°45' E 023°25'3 5.4
2018-Jun-10 12:00N 37°47' E 023°27'714.6
2018-Jun-10 11:30N 37°52' E 023°33'612.0
2018-Jun-10 11:00N 37°57' E 023°38'0 0.0
2018-Jun-10 10:30N 37°57' E 023°38'0 0.0
2018-Jun-10 10:01N 37°57' E 023°38'0 0.0
2018-Jun-10 09:30N 37°57' E 023°38'510.4
2018-Jun-10 09:00N 37°53' E 023°34'815.0
2018-Jun-10 08:30N 37°48' E 023°27'3 6.3
2018-Jun-10 08:00N 37°45' E 023°25'3 6.4
2018-Jun-10 07:30N 37°48' E 023°27'714.7
2018-Jun-10 07:00N 37°52' E 023°34'511.0
2018-Jun-10 06:30N 37°57' E 023°38'0 0.0
2018-Jun-10 06:00N 37°57' E 023°38'0 0.0
2018-Jun-10 05:30N 37°57' E 023°38'0 0.0
2018-Jun-09 18:23N 37°57' E 023°38'  

Dump ship's entire track history